createdAt,value
2022-11-09T00:02:16.189Z,16.20
2022-11-09T00:04:49.361Z,16.20
2022-11-09T00:07:20.352Z,16.20
2022-11-09T00:09:51.482Z,16.20
2022-11-09T00:12:22.257Z,16.10
2022-11-09T00:14:55.558Z,16.10
2022-11-09T00:17:26.546Z,16.00
2022-11-09T00:19:58.918Z,16.00
2022-11-09T00:22:31.902Z,16.00
2022-11-09T00:25:04.707Z,16.10
2022-11-09T00:27:37.405Z,16.00
2022-11-09T00:30:13.161Z,16.10
2022-11-09T00:32:45.119Z,16.10
2022-11-09T00:35:15.869Z,16.10
2022-11-09T00:37:47.944Z,16.10
2022-11-09T00:40:19.365Z,16.00
2022-11-09T00:42:50.132Z,16.00
2022-11-09T00:45:25.727Z,16.10
2022-11-09T00:47:56.403Z,16.00
2022-11-09T00:50:27.130Z,16.00
2022-11-09T00:52:58.087Z,16.00
2022-11-09T00:55:28.972Z,16.00
2022-11-09T00:57:59.671Z,16.00
2022-11-09T01:00:33.214Z,16.00
2022-11-09T01:03:05.104Z,16.00
2022-11-09T01:05:35.901Z,15.90
2022-11-09T01:08:06.711Z,15.80
2022-11-09T01:10:37.837Z,16.00
2022-11-09T01:13:08.850Z,15.90
2022-11-09T01:15:46.688Z,15.90
2022-11-09T01:18:20.028Z,15.90
2022-11-09T01:20:52.675Z,15.90
2022-11-09T01:23:23.821Z,15.80
2022-11-09T01:26:01.110Z,15.90
2022-11-09T01:28:32.279Z,15.50
2022-11-09T01:31:09.185Z,15.80
2022-11-09T01:33:40.417Z,15.80
2022-11-09T01:36:17.639Z,15.80
2022-11-09T01:38:49.107Z,15.80
2022-11-09T01:41:22.195Z,15.80
2022-11-09T01:44:11.039Z,15.70
2022-11-09T01:46:49.617Z,15.80
2022-11-09T01:49:33.979Z,15.90
2022-11-09T01:52:10.148Z,15.80
2022-11-09T01:54:44.703Z,15.80
2022-11-09T01:57:24.096Z,15.80
2022-11-09T02:00:00.796Z,15.80
2022-11-09T02:02:34.284Z,15.80
2022-11-09T02:05:09.670Z,15.70
2022-11-09T02:07:42.617Z,15.80
2022-11-09T02:10:22.184Z,15.70
2022-11-09T02:12:54.855Z,15.70
2022-11-09T02:15:26.485Z,15.70
2022-11-09T02:18:00.657Z,15.70
2022-11-09T02:20:45.746Z,15.70
2022-11-09T02:23:18.545Z,15.60
2022-11-09T02:25:53.787Z,15.60
2022-11-09T02:28:25.401Z,15.50
2022-11-09T02:30:59.464Z,15.80
2022-11-09T02:33:30.220Z,15.50
2022-11-09T02:36:03.893Z,15.50
2022-11-09T02:38:34.651Z,15.40
2022-11-09T02:41:05.804Z,15.50
2022-11-09T02:43:37.523Z,15.40
2022-11-09T02:46:10.137Z,15.40
2022-11-09T02:48:40.902Z,15.40
2022-11-09T02:51:14.319Z,15.40
2022-11-09T02:53:45.682Z,15.40
2022-11-09T02:56:16.396Z,15.40
2022-11-09T02:58:47.318Z,15.40
2022-11-09T03:01:18.247Z,15.30
2022-11-09T03:03:49.014Z,15.30
2022-11-09T03:06:34.211Z,15.30
2022-11-09T03:09:09.821Z,15.20
2022-11-09T03:11:41.830Z,15.20
2022-11-09T03:14:13.133Z,15.20
2022-11-09T03:16:49.168Z,15.20
2022-11-09T03:19:21.126Z,15.10
2022-11-09T03:21:54.517Z,15.10
2022-11-09T03:24:27.459Z,15.10
2022-11-09T03:26:58.392Z,15.10
2022-11-09T03:29:29.104Z,15.10
2022-11-09T03:32:00.050Z,15.10
2022-11-09T03:34:32.429Z,15.10
2022-11-09T03:37:05.825Z,15.10
2022-11-09T03:39:36.793Z,15.10
2022-11-09T03:42:07.760Z,15.10
2022-11-09T03:44:38.451Z,15.10
2022-11-09T03:47:09.186Z,15.10
2022-11-09T03:49:39.918Z,15.20
2022-11-09T03:52:13.510Z,15.20
2022-11-09T03:54:46.340Z,15.00
2022-11-09T03:57:17.575Z,15.30
2022-11-09T03:59:48.295Z,15.30
2022-11-09T04:02:19.116Z,15.20
2022-11-09T04:04:49.877Z,15.40
2022-11-09T04:07:23.419Z,15.30
2022-11-09T04:09:57.120Z,15.30
2022-11-09T04:12:27.861Z,15.30
2022-11-09T04:14:58.553Z,15.30
2022-11-09T04:17:29.525Z,15.30
2022-11-09T04:20:03.262Z,15.30
2022-11-09T04:22:37.116Z,15.30
2022-11-09T04:25:09.075Z,15.40
2022-11-09T04:27:41.080Z,15.40
2022-11-09T04:30:14.442Z,15.50
2022-11-09T04:32:45.127Z,15.40
2022-11-09T04:35:15.915Z,15.30
2022-11-09T04:37:56.006Z,15.20
2022-11-09T04:40:28.361Z,15.20
2022-11-09T04:43:02.804Z,15.20
2022-11-09T04:45:35.021Z,15.20
2022-11-09T04:48:07.416Z,15.10
2022-11-09T04:50:42.609Z,15.10
2022-11-09T04:53:18.796Z,15.10
2022-11-09T04:55:51.511Z,15.10
2022-11-09T04:58:25.219Z,15.10
2022-11-09T05:00:56.593Z,15.10
2022-11-09T05:03:27.397Z,15.40
2022-11-09T05:05:58.469Z,15.10
2022-11-09T05:08:31.941Z,15.10
2022-11-09T05:11:02.727Z,15.10
2022-11-09T05:13:33.416Z,15.00
2022-11-09T05:16:04.195Z,15.10
2022-11-09T05:18:37.386Z,15.40
2022-11-09T05:21:11.281Z,15.00
2022-11-09T05:23:57.114Z,15.00
2022-11-09T05:26:28.878Z,15.00
2022-11-09T05:29:01.406Z,15.00
2022-11-09T05:31:33.166Z,15.00
2022-11-09T05:34:04.348Z,14.90
2022-11-09T05:36:36.198Z,14.90
2022-11-09T05:39:09.624Z,14.90
2022-11-09T05:41:40.340Z,14.90
2022-11-09T05:44:11.236Z,14.90
2022-11-09T05:46:43.929Z,14.80
2022-11-09T05:49:14.626Z,14.70
2022-11-09T05:51:45.299Z,14.70
2022-11-09T05:54:18.681Z,14.60
2022-11-09T05:56:49.393Z,14.60
2022-11-09T05:59:22.384Z,14.50
2022-11-09T06:01:53.367Z,14.60
2022-11-09T06:04:24.319Z,14.60
2022-11-09T06:06:55.525Z,14.60
2022-11-09T06:09:31.578Z,14.50
2022-11-09T06:12:02.259Z,14.50
2022-11-09T06:14:33.148Z,14.40
2022-11-09T06:17:03.994Z,14.40
2022-11-09T06:19:35.345Z,14.40
2022-11-09T06:22:06.104Z,14.30
2022-11-09T06:24:39.402Z,14.30
2022-11-09T06:27:10.676Z,14.30
2022-11-09T06:29:45.863Z,14.20
2022-11-09T06:32:20.902Z,14.20
2022-11-09T06:34:51.682Z,14.20
2022-11-09T06:37:22.374Z,14.20
2022-11-09T06:39:55.679Z,14.20
2022-11-09T06:42:27.655Z,14.20
2022-11-09T06:45:01.056Z,14.20
2022-11-09T06:47:31.739Z,14.20
2022-11-09T06:50:02.402Z,14.20
2022-11-09T06:52:33.135Z,14.20
2022-11-09T06:55:08.229Z,14.20
2022-11-09T06:57:39.073Z,14.10
2022-11-09T07:00:15.485Z,14.20
2022-11-09T07:02:47.538Z,14.10
2022-11-09T07:05:18.567Z,14.10
2022-11-09T07:07:49.306Z,14.20
2022-11-09T07:10:22.711Z,14.10
2022-11-09T07:12:53.531Z,14.10
2022-11-09T07:15:24.308Z,14.00
2022-11-09T07:17:59.516Z,14.40
2022-11-09T07:20:31.072Z,13.90
2022-11-09T07:23:01.961Z,13.90
2022-11-09T07:25:35.992Z,13.80
2022-11-09T07:28:10.971Z,13.80
2022-11-09T07:30:42.276Z,13.70
2022-11-09T07:33:18.142Z,13.70
2022-11-09T07:35:49.551Z,13.70
2022-11-09T07:38:22.434Z,13.80
2022-11-09T07:40:56.075Z,13.70
2022-11-09T07:43:28.890Z,13.70
2022-11-09T07:45:59.772Z,13.80
2022-11-09T07:48:30.962Z,13.80
2022-11-09T07:51:04.222Z,13.80
2022-11-09T07:53:35.431Z,14.00
2022-11-09T07:56:09.287Z,13.90
2022-11-09T07:58:40.092Z,13.90
2022-11-09T08:01:12.070Z,14.00
2022-11-09T08:03:42.891Z,14.00
2022-11-09T08:06:18.233Z,14.00
2022-11-09T08:08:49.591Z,14.00
2022-11-09T08:11:25.485Z,14.00
2022-11-09T08:13:56.795Z,14.00
2022-11-09T08:16:34.843Z,14.10
2022-11-09T08:19:09.688Z,14.10
2022-11-09T08:21:40.623Z,14.10
2022-11-09T08:24:11.664Z,14.10
2022-11-09T08:26:45.412Z,14.20
2022-11-09T08:29:16.205Z,14.20
2022-11-09T08:31:46.887Z,14.30
2022-11-09T08:34:17.654Z,14.30
2022-11-09T08:36:48.329Z,14.30
2022-11-09T08:39:20.011Z,14.30
2022-11-09T08:41:54.258Z,14.20
2022-11-09T08:44:25.082Z,14.30
2022-11-09T08:46:55.835Z,14.40
2022-11-09T08:49:28.317Z,14.40
2022-11-09T08:52:02.854Z,14.50
2022-11-09T08:54:33.549Z,14.60
2022-11-09T08:57:06.921Z,14.60
2022-11-09T08:59:37.972Z,14.60
2022-11-09T09:02:09.535Z,14.50
2022-11-09T09:04:40.626Z,14.60
2022-11-09T09:07:11.678Z,14.60
2022-11-09T09:09:45.571Z,14.70
2022-11-09T09:12:18.978Z,14.70
2022-11-09T09:14:49.721Z,14.70
2022-11-09T09:17:20.477Z,14.80
2022-11-09T09:19:51.286Z,14.90
2022-11-09T09:22:22.500Z,14.90
2022-11-09T09:24:53.750Z,15.00
2022-11-09T09:27:27.257Z,15.20
2022-11-09T09:29:58.513Z,15.00
2022-11-09T09:32:29.380Z,15.10
2022-11-09T09:35:00.096Z,15.10
2022-11-09T09:37:30.910Z,15.10
2022-11-09T09:40:01.652Z,15.20
2022-11-09T09:42:40.578Z,15.20
2022-11-09T09:45:25.061Z,15.20
2022-11-09T09:48:01.678Z,15.20
2022-11-09T09:50:37.837Z,15.30
2022-11-09T09:53:24.699Z,15.30
2022-11-09T09:56:01.068Z,15.30
2022-11-09T09:58:37.985Z,15.20
2022-11-09T10:01:19.893Z,15.20
2022-11-09T10:03:53.225Z,15.20
2022-11-09T10:06:43.273Z,15.20
2022-11-09T10:09:27.497Z,15.20
2022-11-09T10:12:05.765Z,15.30
2022-11-09T10:14:54.328Z,15.30
2022-11-09T10:17:33.609Z,15.40
2022-11-09T10:20:17.063Z,15.40
2022-11-09T10:22:56.389Z,15.40
2022-11-09T10:26:02.391Z,15.60
2022-11-09T10:28:47.888Z,15.50
2022-11-09T10:31:26.864Z,15.50
2022-11-09T10:34:05.687Z,15.50
2022-11-09T10:36:46.645Z,15.50
2022-11-09T10:39:18.665Z,15.50
2022-11-09T10:41:49.402Z,15.50
2022-11-09T10:44:21.496Z,15.50
2022-11-09T10:47:09.766Z,15.80
2022-11-09T10:49:41.514Z,15.60
2022-11-09T10:52:45.967Z,15.80
2022-11-09T10:55:38.363Z,15.70
2022-11-09T10:58:25.482Z,15.70
2022-11-09T11:01:06.114Z,15.70
2022-11-09T11:03:40.830Z,15.70
2022-11-09T11:06:18.654Z,15.70
2022-11-09T11:08:51.722Z,15.70
2022-11-09T11:11:35.141Z,15.70
2022-11-09T11:14:22.689Z,15.70
2022-11-09T11:16:56.210Z,15.70
2022-11-09T11:19:35.953Z,15.80
2022-11-09T11:22:24.568Z,15.80
2022-11-09T11:25:00.473Z,15.90
2022-11-09T11:27:37.900Z,15.90
2022-11-09T11:30:15.791Z,16.00
2022-11-09T11:32:51.270Z,16.00
2022-11-09T11:35:31.023Z,15.90
2022-11-09T11:38:13.014Z,16.00
2022-11-09T11:40:53.244Z,16.10
2022-11-09T11:43:38.310Z,16.10
2022-11-09T11:46:18.876Z,16.00
2022-11-09T11:49:15.880Z,16.00
2022-11-09T11:52:00.481Z,15.90
2022-11-09T11:54:42.801Z,15.90
2022-11-09T11:57:19.653Z,16.00
2022-11-09T12:00:18.335Z,16.10
2022-11-09T12:03:21.803Z,16.00
2022-11-09T12:06:21.988Z,15.70
2022-11-09T12:09:06.305Z,16.00
2022-11-09T12:11:50.981Z,16.00
2022-11-09T12:14:32.304Z,16.00
2022-11-09T12:17:14.278Z,16.10
2022-11-09T12:20:08.650Z,16.10
2022-11-09T12:22:51.551Z,16.00
2022-11-09T12:25:30.560Z,16.10
2022-11-09T12:28:16.029Z,16.10
2022-11-09T12:30:59.985Z,16.10
2022-11-09T12:33:47.800Z,16.00
2022-11-09T12:36:23.420Z,16.10
2022-11-09T12:39:02.879Z,16.10
2022-11-09T12:41:40.132Z,16.20
2022-11-09T12:44:17.497Z,16.20
2022-11-09T12:47:02.542Z,16.30
2022-11-09T12:49:39.531Z,16.40
2022-11-09T12:52:14.499Z,16.50
2022-11-09T12:54:49.099Z,16.40
2022-11-09T12:57:26.505Z,16.20
2022-11-09T12:59:58.984Z,16.30
2022-11-09T13:02:38.678Z,16.30
2022-11-09T13:05:28.960Z,16.30
2022-11-09T13:08:03.011Z,16.20
2022-11-09T13:10:39.225Z,16.20
2022-11-09T13:13:28.074Z,16.10
2022-11-09T13:16:30.550Z,16.20
2022-11-09T13:19:02.929Z,16.30
2022-11-09T13:21:41.562Z,16.30
2022-11-09T13:24:59.744Z,16.10
2022-11-09T13:27:48.005Z,16.10
2022-11-09T13:30:47.688Z,16.00
2022-11-09T13:33:25.097Z,16.00
2022-11-09T13:36:23.145Z,16.00
2022-11-09T13:39:23.946Z,15.90
2022-11-09T13:41:57.514Z,15.80
2022-11-09T13:44:32.933Z,15.80
2022-11-09T13:47:23.187Z,15.70
2022-11-09T13:49:57.230Z,15.80
2022-11-09T13:52:54.769Z,15.80
2022-11-09T13:55:44.201Z,15.70
2022-11-09T13:58:20.885Z,15.70
2022-11-09T14:00:52.134Z,15.80
2022-11-09T14:03:28.147Z,15.80
2022-11-09T14:06:01.274Z,15.80
2022-11-09T14:08:40.338Z,15.80
2022-11-09T14:11:36.584Z,15.70
2022-11-09T14:14:47.630Z,15.70
2022-11-09T14:17:23.971Z,15.80
2022-11-09T14:20:11.666Z,15.70
2022-11-09T14:22:43.581Z,15.60
2022-11-09T14:25:19.341Z,15.60
2022-11-09T14:27:57.541Z,15.60
2022-11-09T14:30:30.666Z,15.50
2022-11-09T14:33:02.012Z,15.50
2022-11-09T14:35:37.618Z,15.50
2022-11-09T14:38:23.308Z,15.50
2022-11-09T14:40:58.883Z,15.50
2022-11-09T14:43:34.331Z,15.50
2022-11-09T14:46:07.359Z,15.50
2022-11-09T14:48:40.864Z,15.40
2022-11-09T14:51:20.550Z,15.50
2022-11-09T14:53:52.744Z,15.50
2022-11-09T14:56:25.638Z,15.50
2022-11-09T14:58:56.985Z,15.50
2022-11-09T15:01:29.602Z,15.50
2022-11-09T15:04:12.246Z,15.30
2022-11-09T15:06:55.103Z,15.30
2022-11-09T15:09:30.671Z,15.30
2022-11-09T15:12:01.565Z,15.20
2022-11-09T15:14:34.840Z,15.20
2022-11-09T15:17:15.698Z,15.20
2022-11-09T15:19:56.243Z,15.10
2022-11-09T15:22:50.266Z,15.00
2022-11-09T15:25:28.052Z,14.80
2022-11-09T15:28:06.466Z,14.70
2022-11-09T15:30:44.610Z,14.60
2022-11-09T15:33:24.361Z,14.60
2022-11-09T15:35:57.233Z,14.50
2022-11-09T15:38:37.753Z,14.50
2022-11-09T15:41:14.144Z,14.50
2022-11-09T15:43:47.862Z,14.50
2022-11-09T15:46:23.813Z,14.50
2022-11-09T15:48:55.021Z,14.50
2022-11-09T15:51:25.746Z,14.40
2022-11-09T15:53:59.450Z,14.30
2022-11-09T15:56:30.255Z,14.20
2022-11-09T15:59:00.942Z,14.50
2022-11-09T16:01:33.204Z,14.10
2022-11-09T16:04:06.098Z,14.20
2022-11-09T16:06:36.852Z,14.20
2022-11-09T16:09:10.355Z,14.10
2022-11-09T16:11:43.684Z,14.10
2022-11-09T16:14:17.757Z,14.10
2022-11-09T16:16:48.965Z,14.10
2022-11-09T16:19:19.706Z,13.70
2022-11-09T16:21:51.085Z,14.00
2022-11-09T16:24:24.441Z,14.00
2022-11-09T16:26:57.044Z,14.00
2022-11-09T16:29:31.533Z,13.90
2022-11-09T16:32:04.843Z,13.90
2022-11-09T16:34:35.640Z,13.90
2022-11-09T16:37:06.713Z,13.90
2022-11-09T16:39:40.312Z,13.80
2022-11-09T16:42:14.647Z,13.80
2022-11-09T16:44:49.403Z,13.80
2022-11-09T16:47:21.591Z,13.70
2022-11-09T16:49:52.261Z,13.70
2022-11-09T16:52:23.288Z,13.70
2022-11-09T16:54:56.585Z,13.70
2022-11-09T16:57:27.338Z,13.70
2022-11-09T16:59:58.039Z,13.70
2022-11-09T17:02:30.563Z,13.70
2022-11-09T17:05:02.430Z,13.70
2022-11-09T17:07:42.105Z,13.60
2022-11-09T17:10:15.866Z,13.60
2022-11-09T17:12:46.840Z,13.50
2022-11-09T17:15:17.905Z,13.50
2022-11-09T17:17:48.810Z,13.50
2022-11-09T17:20:20.370Z,13.50
2022-11-09T17:22:51.286Z,13.50
2022-11-09T17:25:24.652Z,13.40
2022-11-09T17:27:55.404Z,13.50
2022-11-09T17:30:27.149Z,13.40
2022-11-09T17:32:57.928Z,13.40
2022-11-09T17:35:28.888Z,13.30
2022-11-09T17:38:02.065Z,13.30
2022-11-09T17:40:35.324Z,13.30
2022-11-09T17:43:09.214Z,13.30
2022-11-09T17:45:40.365Z,13.30
2022-11-09T17:48:11.147Z,13.30
2022-11-09T17:50:41.871Z,13.30
2022-11-09T17:53:12.619Z,13.30
2022-11-09T17:55:45.867Z,13.30
2022-11-09T17:58:17.095Z,13.40
2022-11-09T18:00:48.038Z,13.60
2022-11-09T18:03:19.116Z,13.30
2022-11-09T18:05:50.197Z,13.30
2022-11-09T18:08:23.206Z,13.30
2022-11-09T18:11:01.190Z,13.30
2022-11-09T18:13:32.176Z,13.20
2022-11-09T18:16:12.171Z,13.20
2022-11-09T18:18:50.586Z,13.20
2022-11-09T18:21:31.119Z,13.30
2022-11-09T18:24:03.526Z,13.30
2022-11-09T18:26:37.295Z,13.30
2022-11-09T18:29:08.495Z,13.30
2022-11-09T18:31:42.569Z,13.20
2022-11-09T18:34:13.623Z,13.20
2022-11-09T18:36:46.631Z,13.20
2022-11-09T18:39:17.846Z,13.20
2022-11-09T18:41:52.145Z,13.20
2022-11-09T18:44:24.825Z,13.20
2022-11-09T18:47:03.717Z,13.20
2022-11-09T18:49:36.046Z,13.20
2022-11-09T18:52:09.381Z,13.20
2022-11-09T18:54:40.571Z,13.10
2022-11-09T18:57:19.493Z,13.20
2022-11-09T18:59:51.397Z,13.10
2022-11-09T19:02:22.396Z,13.10
2022-11-09T19:04:55.293Z,13.10
2022-11-09T19:07:26.737Z,13.10
2022-11-09T19:09:57.879Z,13.20
2022-11-09T19:12:32.661Z,13.20
2022-11-09T19:15:07.719Z,13.10
2022-11-09T19:17:41.304Z,13.10
2022-11-09T19:20:13.637Z,13.10
2022-11-09T19:22:44.432Z,13.10
2022-11-09T19:25:15.647Z,13.10
2022-11-09T19:27:49.233Z,13.10
2022-11-09T19:30:20.637Z,13.10
2022-11-09T19:32:52.488Z,13.10
2022-11-09T19:35:26.455Z,13.10
2022-11-09T19:38:03.666Z,13.10
2022-11-09T19:40:39.986Z,13.10
2022-11-09T19:43:13.731Z,13.10
2022-11-09T19:45:44.912Z,13.10
2022-11-09T19:48:15.797Z,13.10
2022-11-09T19:50:50.612Z,13.20
2022-11-09T19:53:24.646Z,13.10
2022-11-09T19:56:01.913Z,13.10
2022-11-09T19:58:35.291Z,13.10
2022-11-09T20:01:07.657Z,13.00
2022-11-09T20:03:38.759Z,13.00
2022-11-09T20:06:10.091Z,12.90
2022-11-09T20:08:40.903Z,12.90
2022-11-09T20:11:33.971Z,13.30
2022-11-09T20:14:05.785Z,12.90
2022-11-09T20:16:37.445Z,12.90
2022-11-09T20:19:11.069Z,12.90
2022-11-09T20:21:44.342Z,12.80
2022-11-09T20:24:15.372Z,12.80
2022-11-09T20:26:46.333Z,12.80
2022-11-09T20:29:19.959Z,12.80
2022-11-09T20:31:50.612Z,12.70
2022-11-09T20:34:23.669Z,12.70
2022-11-09T20:36:54.400Z,12.70
2022-11-09T20:39:27.771Z,12.70
2022-11-09T20:42:01.466Z,12.70
2022-11-09T20:44:34.833Z,12.60
2022-11-09T20:47:06.399Z,12.60
2022-11-09T20:49:37.150Z,12.60
2022-11-09T20:52:08.110Z,12.60
2022-11-09T20:54:38.834Z,12.60
2022-11-09T20:57:10.289Z,12.50
2022-11-09T20:59:45.051Z,12.50
2022-11-09T21:02:17.254Z,12.50
2022-11-09T21:04:50.180Z,12.50
2022-11-09T21:07:20.854Z,12.50
2022-11-09T21:09:51.607Z,12.40
2022-11-09T21:12:25.310Z,12.40
2022-11-09T21:14:58.640Z,12.80
2022-11-09T21:17:29.354Z,12.40
2022-11-09T21:20:00.076Z,12.30
2022-11-09T21:22:43.094Z,12.30
2022-11-09T21:25:26.271Z,12.40
2022-11-09T21:28:09.499Z,12.40
2022-11-09T21:30:42.875Z,12.30
2022-11-09T21:33:13.688Z,12.60
2022-11-09T21:35:44.405Z,12.30
2022-11-09T21:38:19.322Z,12.30
2022-11-09T21:40:53.461Z,12.20
2022-11-09T21:43:25.333Z,12.30
2022-11-09T21:45:58.978Z,12.30
2022-11-09T21:48:29.673Z,12.20
2022-11-09T21:51:00.670Z,12.20
2022-11-09T21:53:37.026Z,12.30
2022-11-09T21:56:11.371Z,12.20
2022-11-09T21:58:49.316Z,12.20
2022-11-09T22:01:26.042Z,12.20
2022-11-09T22:03:57.198Z,12.20
2022-11-09T22:06:28.835Z,12.10
2022-11-09T22:08:59.620Z,12.10
2022-11-09T22:11:43.562Z,12.10
2022-11-09T22:14:28.055Z,12.10
2022-11-09T22:17:03.398Z,12.10
2022-11-09T22:19:53.098Z,12.10
2022-11-09T22:22:25.056Z,12.10
2022-11-09T22:24:56.109Z,12.10
2022-11-09T22:27:27.052Z,12.10
2022-11-09T22:29:58.061Z,12.50
2022-11-09T22:32:41.856Z,12.10
2022-11-09T22:35:12.633Z,12.10
2022-11-09T22:37:43.481Z,12.10
2022-11-09T22:40:14.693Z,12.00
2022-11-09T22:42:45.420Z,12.00
2022-11-09T22:45:16.680Z,12.00
2022-11-09T22:47:51.613Z,12.00
2022-11-09T22:50:22.339Z,12.00
2022-11-09T22:53:03.223Z,12.00
2022-11-09T22:55:34.593Z,12.00
2022-11-09T22:58:09.529Z,12.00
2022-11-09T23:00:42.683Z,12.00
2022-11-09T23:03:18.209Z,12.00
2022-11-09T23:05:50.210Z,12.00
2022-11-09T23:08:23.996Z,12.00
2022-11-09T23:10:57.674Z,12.00
2022-11-09T23:13:28.555Z,12.00
2022-11-09T23:16:00.132Z,12.00
2022-11-09T23:18:46.189Z,12.00
2022-11-09T23:21:17.798Z,12.00
2022-11-09T23:23:49.361Z,12.00
2022-11-09T23:26:21.686Z,12.00
2022-11-09T23:28:55.581Z,12.00
2022-11-09T23:31:27.671Z,11.90
2022-11-09T23:34:07.337Z,12.00
2022-11-09T23:36:40.605Z,12.10
2022-11-09T23:39:11.903Z,12.00
2022-11-09T23:41:42.674Z,12.00
2022-11-09T23:44:14.977Z,12.00
2022-11-09T23:46:45.674Z,12.00
2022-11-09T23:49:20.193Z,11.90
2022-11-09T23:51:51.197Z,11.90
2022-11-09T23:54:24.863Z,12.00
2022-11-09T23:56:57.525Z,12.00
2022-11-09T23:59:28.277Z,12.10
